Time;durP1;ratioP1;P1;durP2;ratioP2;P2;SDS_P1;SDS_P2;PMS_P1;PMS_P2;Temp;Humidity;BMP_temperature;BMP_pressure;BME280_temperature;BME280_humidity;BME280_pressure;Samples;Min_cycle;Max_cycle;Signal;HPM_P1;HPM_P2
2021/11/05 00:00:54;;;;;;;0.00;0.00;;;14.40;89.50;;;;;;5034931;28;20040;-77
2021/11/05 00:03:19;;;;;;;0.00;0.00;;;14.40;89.40;;;;;;5049926;28;20025;-77
2021/11/05 00:05:45;;;;;;;0.00;0.00;;;14.40;89.50;;;;;;5034651;28;20067;-77
2021/11/05 00:08:11;;;;;;;0.00;0.00;;;14.40;89.80;;;;;;5034602;28;20053;-77
2021/11/05 00:10:39;;;;;;;0.00;0.00;;;14.40;90.00;;;;;;5034185;28;20026;-77
2021/11/05 00:13:06;;;;;;;0.00;0.00;;;14.50;90.10;;;;;;5034905;28;20060;-77
2021/11/05 00:15:32;;;;;;;0.00;0.00;;;14.50;90.50;;;;;;5034530;28;20040;-77
2021/11/05 00:17:57;;;;;;;0.00;0.00;;;14.60;90.30;;;;;;5034129;28;20041;-77
2021/11/05 00:20:24;;;;;;;0.00;0.00;;;14.60;90.40;;;;;;5034582;28;20026;-77
2021/11/05 00:22:49;;;;;;;0.00;0.00;;;14.60;90.40;;;;;;5034636;28;20029;-77
2021/11/05 00:25:15;;;;;;;0.00;0.00;;;14.70;90.60;;;;;;5033866;28;20022;-77
2021/11/05 00:27:42;;;;;;;0.00;0.00;;;14.70;90.60;;;;;;5049795;28;20433;-77
2021/11/05 00:30:10;;;;;;;0.00;0.00;;;14.80;90.60;;;;;;5034151;28;20052;-78
2021/11/05 00:32:36;;;;;;;0.00;0.00;;;14.80;90.70;;;;;;5034239;28;20021;-77
2021/11/05 00:35:03;;;;;;;0.00;0.00;;;14.90;90.70;;;;;;5034277;28;20036;-77
2021/11/05 00:37:28;;;;;;;0.00;0.00;;;14.90;90.70;;;;;;5034245;28;20034;-77
2021/11/05 00:39:54;;;;;;;0.00;0.00;;;14.90;90.70;;;;;;5033979;28;20057;-78
2021/11/05 00:42:20;;;;;;;0.00;0.00;;;14.90;90.70;;;;;;5034127;28;20116;-77
2021/11/05 00:44:46;;;;;;;0.00;0.00;;;15.00;90.70;;;;;;5034070;28;20151;-77
2021/11/05 00:47:12;;;;;;;0.00;0.00;;;15.00;90.60;;;;;;5034401;28;20029;-78
2021/11/05 00:49:37;;;;;;;0.00;0.00;;;15.00;90.70;;;;;;5033900;28;20491;-78
2021/11/05 00:52:04;;;;;;;0.00;0.00;;;15.10;90.70;;;;;;5032848;28;20060;-77
2021/11/05 00:54:30;;;;;;;0.00;0.00;;;15.10;90.70;;;;;;5033950;28;20021;-77
2021/11/05 00:56:56;;;;;;;0.00;0.00;;;15.10;90.70;;;;;;5034195;28;20441;-78
2021/11/05 00:59:22;;;;;;;0.00;0.00;;;15.10;90.60;;;;;;5033645;28;20056;-78
2021/11/05 01:01:48;;;;;;;0.00;0.00;;;15.20;90.50;;;;;;5033772;28;20461;-78
2021/11/05 01:04:13;;;;;;;0.00;0.00;;;15.20;90.40;;;;;;5033989;28;20087;-78
2021/11/05 01:06:39;;;;;;;0.00;0.00;;;15.20;90.40;;;;;;5034203;28;20022;-78
2021/11/05 01:09:05;;;;;;;0.00;0.00;;;15.20;90.40;;;;;;5033626;28;20030;-78
2021/11/05 01:11:31;;;;;;;0.00;0.00;;;15.20;90.50;;;;;;5033516;28;20025;-78
2021/11/05 01:13:57;;;;;;;0.00;0.00;;;15.20;90.40;;;;;;5033977;28;20026;-78
2021/11/05 01:16:23;;;;;;;0.00;0.00;;;15.30;90.40;;;;;;5034051;28;20087;-78
2021/11/05 01:18:49;;;;;;;0.00;0.00;;;15.30;90.40;;;;;;5033258;28;20034;-78
2021/11/05 01:21:16;;;;;;;0.00;0.00;;;15.30;90.40;;;;;;5033646;28;20475;-81
2021/11/05 01:23:42;;;;;;;0.00;0.00;;;15.30;90.40;;;;;;5041109;28;20040;-78
2021/11/05 01:26:07;;;;;;;0.00;0.00;;;15.30;90.40;;;;;;5053807;28;20372;-77
2021/11/05 01:28:33;;;;;;;0.00;0.00;;;15.30;90.40;;;;;;5053418;28;20038;-78
2021/11/05 01:30:59;;;;;;;0.00;0.00;;;15.40;90.30;;;;;;5053260;28;20029;-77
2021/11/05 01:33:25;;;;;;;0.00;0.00;;;15.40;90.30;;;;;;5033049;28;20496;-77
2021/11/05 01:35:51;;;;;;;0.00;0.00;;;15.40;90.30;;;;;;5033844;28;20103;-77
2021/11/05 01:38:17;;;;;;;0.00;0.00;;;15.40;90.10;;;;;;5037314;28;20057;-78
2021/11/05 01:40:44;;;;;;;0.00;0.00;;;15.40;90.10;;;;;;5037336;28;20029;-78
2021/11/05 01:43:11;;;;;;;0.00;0.00;;;15.40;90.10;;;;;;5037449;28;20118;-78
2021/11/05 01:45:37;;;;;;;0.00;0.00;;;15.50;90.00;;;;;;5037621;28;20088;-78
2021/11/05 01:48:03;;;;;;;0.00;0.00;;;15.40;90.00;;;;;;5037185;28;20033;-78
2021/11/05 01:50:29;;;;;;;0.00;0.00;;;15.50;90.10;;;;;;5037242;28;20024;-77
2021/11/05 01:52:56;;;;;;;0.00;0.00;;;15.50;90.00;;;;;;5037230;28;20342;-77
2021/11/05 01:55:22;;;;;;;0.00;0.00;;;15.40;89.90;;;;;;5037558;28;20032;-77
2021/11/05 01:57:48;;;;;;;0.00;0.00;;;15.50;90.00;;;;;;5037094;28;20033;-77
2021/11/05 02:00:17;;;;;;;0.00;0.00;;;15.40;89.90;;;;;;5037447;28;20039;-78
2021/11/05 02:02:43;;;;;;;0.00;0.00;;;15.50;90.00;;;;;;5037437;28;20143;-78
2021/11/05 02:05:10;;;;;;;0.00;0.00;;;15.50;90.00;;;;;;5036894;28;20499;-77
2021/11/05 02:07:37;;;;;;;0.00;0.00;;;15.50;90.10;;;;;;5036880;28;20061;-78
2021/11/05 02:10:09;;;;;;;0.00;0.00;;;15.50;90.00;;;;;;5037256;28;20034;-78
2021/11/05 02:12:35;;;;;;;0.00;0.00;;;15.50;90.00;;;;;;5036970;28;20087;-78
2021/11/05 02:15:02;;;;;;;0.00;0.00;;;15.50;90.00;;;;;;5036570;28;20025;-77
2021/11/05 02:17:28;;;;;;;0.00;0.00;;;15.50;89.90;;;;;;5036770;28;20033;-78
2021/11/05 02:19:57;;;;;;;0.00;0.00;;;15.50;89.90;;;;;;5036446;28;20117;-77
2021/11/05 02:22:24;;;;;;;0.00;0.00;;;15.50;90.00;;;;;;5036821;28;20029;-78
2021/11/05 02:24:49;;;;;;;0.10;0.10;;;15.50;90.00;;;;;;5051887;28;20029;-78
2021/11/05 02:27:15;;;;;;;0.00;0.00;;;15.50;89.90;;;;;;5036760;28;20032;-78
2021/11/05 02:29:41;;;;;;;0.00;0.00;;;15.50;89.90;;;;;;5036238;28;20087;-78
2021/11/05 02:32:08;;;;;;;0.00;0.00;;;15.50;90.00;;;;;;5036676;28;20147;-78
2021/11/05 02:34:34;;;;;;;0.00;0.00;;;15.50;90.00;;;;;;5036511;28;20041;-77
2021/11/05 02:37:03;;;;;;;0.00;0.00;;;15.50;90.00;;;;;;5035848;28;20469;-78
2021/11/05 02:39:29;;;;;;;0.00;0.00;;;15.50;90.00;;;;;;5035765;28;20053;-78
2021/11/05 02:41:55;;;;;;;0.00;0.00;;;15.50;90.00;;;;;;5036309;28;20031;-77
2021/11/05 02:44:22;;;;;;;0.00;0.00;;;15.50;90.00;;;;;;5036949;28;20025;-77
2021/11/05 02:46:48;;;;;;;0.00;0.00;;;15.50;90.00;;;;;;5036262;28;20033;-78
2021/11/05 02:49:16;;;;;;;0.00;0.00;;;15.50;90.00;;;;;;5035709;28;20036;-77
2021/11/05 02:51:44;;;;;;;0.00;0.00;;;15.50;89.90;;;;;;5036377;28;20030;-78
2021/11/05 02:54:10;;;;;;;0.00;0.00;;;15.50;90.00;;;;;;5036210;28;20030;-78
2021/11/05 02:56:36;;;;;;;0.00;0.00;;;15.50;90.00;;;;;;5035999;28;20503;-78
2021/11/05 02:59:04;;;;;;;0.00;0.00;;;15.50;90.00;;;;;;5035986;28;20026;-78
2021/11/05 03:01:30;;;;;;;0.00;0.00;;;15.50;90.10;;;;;;5051523;28;20450;-78
2021/11/05 03:04:02;;;;;;;0.00;0.00;;;15.50;90.10;;;;;;5036265;28;20068;-78
2021/11/05 03:06:32;;;;;;;0.00;0.00;;;15.40;90.10;;;;;;5035850;28;20076;-78
2021/11/05 03:08:58;;;;;;;0.00;0.00;;;15.40;90.20;;;;;;5034858;28;20033;-77
2021/11/05 03:11:23;;;;;;;0.00;0.00;;;15.40;90.20;;;;;;5035776;28;20029;-78
2021/11/05 03:13:49;;;;;;;0.00;0.00;;;15.40;90.20;;;;;;5035493;28;20079;-78
2021/11/05 03:16:15;;;;;;;0.00;0.00;;;15.40;90.20;;;;;;5051063;28;20053;-78
2021/11/05 03:18:42;;;;;;;0.00;0.00;;;15.40;90.30;;;;;;5035570;28;20034;-78
2021/11/05 03:21:08;;;;;;;0.00;0.00;;;15.40;90.30;;;;;;5035816;28;20021;-77
2021/11/05 03:23:35;;;;;;;0.00;0.00;;;15.30;90.40;;;;;;5035439;28;20021;-77
2021/11/05 03:26:01;;;;;;;0.00;0.00;;;15.30;90.50;;;;;;5035764;28;20068;-77
2021/11/05 03:28:26;;;;;;;0.00;0.00;;;15.30;90.60;;;;;;5035821;28;20065;-77
2021/11/05 03:30:52;;;;;;;0.00;0.00;;;15.30;90.60;;;;;;5035550;28;20084;-79
2021/11/05 03:33:18;;;;;;;0.00;0.00;;;15.30;90.60;;;;;;5035524;28;20029;-77
2021/11/05 03:35:43;;;;;;;0.00;0.00;;;15.40;90.70;;;;;;5035362;28;20052;-78
2021/11/05 03:38:09;;;;;;;0.00;0.00;;;15.30;90.70;;;;;;5034735;28;20045;-79
2021/11/05 03:40:36;;;;;;;0.00;0.00;;;15.40;90.70;;;;;;5035238;28;20029;-78
2021/11/05 03:43:03;;;;;;;0.00;0.00;;;15.40;90.90;;;;;;5035280;28;20036;-78
2021/11/05 03:45:29;;;;;;;0.00;0.00;;;15.40;90.90;;;;;;5035236;28;20053;-78
2021/11/05 03:47:55;;;;;;;0.00;0.00;;;15.40;90.90;;;;;;5034993;28;20033;-78
2021/11/05 03:50:20;;;;;;;0.00;0.00;;;15.40;90.80;;;;;;5034774;28;20044;-78
2021/11/05 03:52:46;;;;;;;0.00;0.00;;;15.40;90.80;;;;;;5050508;28;20084;-78
2021/11/05 03:55:13;;;;;;;0.00;0.00;;;15.40;90.80;;;;;;5034853;28;20036;-78
2021/11/05 03:57:38;;;;;;;0.00;0.00;;;15.40;90.80;;;;;;5034687;28;20044;-78
2021/11/05 04:00:09;;;;;;;0.00;0.00;;;15.40;90.80;;;;;;5049245;28;20373;-78
2021/11/05 04:02:36;;;;;;;0.00;0.00;;;15.40;90.80;;;;;;5034911;28;20029;-78
2021/11/05 04:05:03;;;;;;;0.00;0.00;;;15.40;90.80;;;;;;5049736;28;20056;-78
2021/11/05 04:07:29;;;;;;;0.00;0.00;;;15.40;90.80;;;;;;5050337;28;20040;-78
2021/11/05 04:09:55;;;;;;;0.00;0.00;;;15.40;90.80;;;;;;5034358;28;20029;-78
2021/11/05 04:12:21;;;;;;;0.00;0.00;;;15.40;90.80;;;;;;5049997;28;20033;-78
2021/11/05 04:14:47;;;;;;;0.00;0.00;;;15.40;90.80;;;;;;5049674;28;20354;-78
2021/11/05 04:17:13;;;;;;;0.00;0.00;;;15.40;90.90;;;;;;5034165;28;20043;-78
2021/11/05 04:19:40;;;;;;;0.00;0.00;;;15.40;90.90;;;;;;5034296;28;20048;-78
2021/11/05 04:22:07;;;;;;;0.00;0.00;;;15.50;90.90;;;;;;5034277;28;20076;-78
2021/11/05 04:24:32;;;;;;;0.00;0.00;;;15.50;90.90;;;;;;5034626;28;20030;-78
2021/11/05 04:26:59;;;;;;;0.00;0.00;;;15.50;90.90;;;;;;5034029;28;20052;-78
2021/11/05 04:29:25;;;;;;;0.00;0.00;;;15.50;90.90;;;;;;5034432;28;20086;-77
2021/11/05 04:31:51;;;;;;;0.00;0.00;;;15.50;91.00;;;;;;5034383;28;20030;-77
2021/11/05 04:34:16;;;;;;;0.00;0.00;;;15.50;91.00;;;;;;5034190;28;20484;-78
2021/11/05 04:36:42;;;;;;;0.00;0.00;;;15.50;91.10;;;;;;5034104;28;20110;-78
2021/11/05 04:39:14;;;;;;;0.00;0.00;;;15.60;91.30;;;;;;5034230;28;20050;-78
2021/11/05 04:41:40;;;;;;;0.00;0.00;;;15.60;91.10;;;;;;5034213;28;20017;-78
2021/11/05 04:44:06;;;;;;;0.00;0.00;;;15.50;91.10;;;;;;5034096;28;20022;-78
2021/11/05 04:46:31;;;;;;;0.00;0.00;;;15.50;91.10;;;;;;5033747;28;20112;-78
2021/11/05 04:48:58;;;;;;;0.00;0.00;;;15.50;91.20;;;;;;5033997;28;20030;-78
2021/11/05 04:51:23;;;;;;;0.00;0.00;;;15.50;91.20;;;;;;5033813;28;20029;-78
2021/11/05 04:53:49;;;;;;;0.00;0.00;;;15.50;91.20;;;;;;5034109;28;20036;-78
2021/11/05 04:56:15;;;;;;;0.00;0.00;;;15.50;91.30;;;;;;5049154;28;20034;-78
2021/11/05 04:58:41;;;;;;;0.00;0.00;;;15.50;91.30;;;;;;5033619;28;20392;-78
2021/11/05 05:01:06;;;;;;;0.00;0.00;;;15.50;91.30;;;;;;5033617;28;20504;-78
2021/11/05 05:03:32;;;;;;;0.00;0.00;;;15.50;91.30;;;;;;5033425;28;20095;-78
2021/11/05 05:05:58;;;;;;;0.00;0.00;;;15.50;91.40;;;;;;5033252;28;20061;-78
2021/11/05 05:08:23;;;;;;;0.00;0.00;;;15.50;91.30;;;;;;5033518;28;20422;-79
2021/11/05 05:10:49;;;;;;;0.00;0.00;;;15.50;91.30;;;;;;5033171;28;20028;-78
2021/11/05 05:13:15;;;;;;;0.00;0.00;;;15.50;91.40;;;;;;5033602;28;20022;-77
2021/11/05 05:15:41;;;;;;;0.00;0.00;;;15.60;91.40;;;;;;5033808;28;20025;-77
2021/11/05 05:18:06;;;;;;;0.00;0.00;;;15.60;91.40;;;;;;5033061;28;20034;-79
2021/11/05 05:20:32;;;;;;;0.00;0.00;;;15.60;91.40;;;;;;5033397;28;20026;-79
2021/11/05 05:22:58;;;;;;;0.00;0.00;;;15.60;91.40;;;;;;5033208;28;20469;-78
2021/11/05 05:25:24;;;;;;;0.10;0.00;;;15.60;91.40;;;;;;5039833;28;20032;-77
2021/11/05 05:27:51;;;;;;;0.00;0.00;;;15.60;91.40;;;;;;5052987;28;20044;-77
2021/11/05 05:30:18;;;;;;;0.00;0.00;;;15.60;91.50;;;;;;5068549;28;20116;-77
2021/11/05 05:32:46;;;;;;;0.00;0.00;;;15.60;91.50;;;;;;5053333;28;20087;-77
2021/11/05 05:35:13;;;;;;;0.00;0.00;;;15.70;91.50;;;;;;5053008;28;20473;-77
2021/11/05 05:37:39;;;;;;;0.00;0.00;;;15.60;91.40;;;;;;5053449;28;20037;-78
2021/11/05 05:40:06;;;;;;;0.00;0.00;;;15.70;91.50;;;;;;5053237;28;20056;-75
2021/11/05 05:42:32;;;;;;;0.00;0.00;;;15.70;91.50;;;;;;5052953;28;20032;-79
2021/11/05 05:44:58;;;;;;;0.00;0.00;;;15.70;91.50;;;;;;5053201;28;20372;-77
2021/11/05 05:47:23;;;;;;;0.00;0.00;;;15.70;91.50;;;;;;5036056;28;20088;-76
2021/11/05 05:49:51;;;;;;;0.00;0.00;;;15.70;91.50;;;;;;5022144;28;20018;-80
2021/11/05 05:52:17;;;;;;;0.00;0.00;;;15.70;91.50;;;;;;5027672;28;20022;-77
2021/11/05 05:54:43;;;;;;;0.00;0.00;;;15.70;91.50;;;;;;5033453;28;20432;-77
2021/11/05 05:57:09;;;;;;;0.00;0.00;;;15.70;91.50;;;;;;5033094;28;20116;-77
2021/11/05 05:59:35;;;;;;;0.00;0.00;;;15.70;91.40;;;;;;5025963;28;20030;-77
2021/11/05 06:02:01;;;;;;;0.00;0.00;;;15.70;91.50;;;;;;5020639;28;20438;-78
2021/11/05 06:04:26;;;;;;;0.00;0.00;;;15.80;91.40;;;;;;5018778;28;20113;-76
2021/11/05 06:06:53;;;;;;;0.00;0.00;;;15.80;91.40;;;;;;5013390;28;20390;-77
2021/11/05 06:09:19;;;;;;;0.00;0.00;;;15.80;91.40;;;;;;5013440;28;20022;-77
2021/11/05 06:11:45;;;;;;;0.00;0.00;;;15.80;91.40;;;;;;5017773;28;20033;-76
2021/11/05 06:14:12;;;;;;;0.00;0.00;;;15.80;91.40;;;;;;5024216;28;20030;-78
2021/11/05 06:16:39;;;;;;;0.00;0.00;;;15.80;91.40;;;;;;5030654;28;20033;-78
2021/11/05 06:19:05;;;;;;;0.00;0.00;;;15.90;91.40;;;;;;5013172;28;20045;-78
2021/11/05 06:21:31;;;;;;;0.00;0.00;;;15.90;91.20;;;;;;5011991;28;20458;-78
2021/11/05 06:23:57;;;;;;;0.00;0.00;;;15.90;91.20;;;;;;5015112;28;20041;-78
2021/11/05 06:26:23;;;;;;;0.00;0.00;;;15.90;91.20;;;;;;5016881;28;20462;-78
2021/11/05 06:28:49;;;;;;;0.00;0.00;;;15.90;91.10;;;;;;5016426;28;20478;-77
2021/11/05 06:31:16;;;;;;;0.00;0.00;;;15.90;91.00;;;;;;5016662;28;20026;-78
2021/11/05 06:33:41;;;;;;;0.00;0.00;;;16.00;91.30;;;;;;5016757;28;20076;-78
2021/11/05 06:36:07;;;;;;;0.00;0.00;;;16.00;91.10;;;;;;5016596;28;20025;-78
2021/11/05 06:38:33;;;;;;;0.00;0.00;;;15.90;91.00;;;;;;5016455;28;20136;-78
2021/11/05 06:40:59;;;;;;;0.00;0.00;;;16.00;91.00;;;;;;5016358;28;20025;-78
2021/11/05 06:43:25;;;;;;;0.00;0.00;;;16.00;91.00;;;;;;5016597;28;20034;-78
2021/11/05 06:45:51;;;;;;;0.00;0.00;;;16.00;91.00;;;;;;5016390;28;20033;-78
2021/11/05 06:48:16;;;;;;;0.00;0.00;;;16.00;91.00;;;;;;5031327;28;20377;-78
2021/11/05 06:50:42;;;;;;;0.00;0.00;;;16.00;91.10;;;;;;5016402;28;20026;-78
2021/11/05 06:53:10;;;;;;;0.00;0.00;;;16.00;91.00;;;;;;5016130;28;20034;-78
2021/11/05 06:55:36;;;;;;;0.00;0.00;;;16.00;90.90;;;;;;5016044;28;20160;-77
2021/11/05 06:58:03;;;;;;;0.10;0.05;;;16.00;90.90;;;;;;5016168;28;20458;-79
2021/11/05 07:00:29;;;;;;;0.00;0.00;;;16.10;90.80;;;;;;5016402;28;20083;-78
2021/11/05 07:02:54;;;;;;;0.00;0.00;;;16.10;90.90;;;;;;5014974;28;20109;-79
2021/11/05 07:05:22;;;;;;;0.00;0.00;;;16.10;90.90;;;;;;5016172;28;20040;-78
2021/11/05 07:07:48;;;;;;;0.00;0.00;;;16.10;90.90;;;;;;5015852;28;20034;-78
2021/11/05 07:10:14;;;;;;;0.00;0.00;;;16.10;90.80;;;;;;5015883;28;20034;-78
2021/11/05 07:12:40;;;;;;;0.00;0.00;;;16.10;90.80;;;;;;5015789;28;20037;-78
2021/11/05 07:15:07;;;;;;;0.00;0.00;;;16.10;90.80;;;;;;5031068;28;20381;-78
2021/11/05 07:17:33;;;;;;;0.00;0.00;;;16.20;90.80;;;;;;5015674;28;20044;-79
2021/11/05 07:19:59;;;;;;;0.00;0.00;;;16.10;91.10;;;;;;5022697;28;20100;-79
2021/11/05 07:22:25;;;;;;;0.00;0.00;;;16.10;90.80;;;;;;5035715;28;20380;-79
2021/11/05 07:24:54;;;;;;;0.00;0.00;;;16.10;90.80;;;;;;5035527;28;20026;-77
2021/11/05 07:27:20;;;;;;;0.30;0.00;;;16.20;90.80;;;;;;5029013;28;20080;-77
2021/11/05 07:29:46;;;;;;;0.00;0.00;;;16.10;90.80;;;;;;5024577;28;20029;-78
2021/11/05 07:32:12;;;;;;;0.00;0.00;;;16.10;90.90;;;;;;5025213;28;20032;-78
2021/11/05 07:34:38;;;;;;;0.00;0.00;;;16.20;91.10;;;;;;5025834;28;20022;-77
2021/11/05 07:37:24;;;;;;;0.00;0.00;;;16.20;91.00;;;;;;5024119;28;20037;-78
2021/11/05 07:39:50;;;;;;;0.00;0.00;;;16.20;91.10;;;;;;5023517;28;20094;-77
2021/11/05 07:42:17;;;;;;;0.00;0.00;;;16.30;91.00;;;;;;5025117;28;20021;-78
2021/11/05 07:44:43;;;;;;;0.00;0.00;;;16.30;91.00;;;;;;5023621;28;20449;-78
2021/11/05 07:47:09;;;;;;;0.00;0.00;;;16.30;91.00;;;;;;5023543;28;20030;-78
2021/11/05 07:49:35;;;;;;;0.00;0.00;;;16.30;90.90;;;;;;5024756;28;20032;-78
2021/11/05 07:52:02;;;;;;;0.00;0.00;;;16.40;90.80;;;;;;5023020;28;20030;-78
2021/11/05 07:54:28;;;;;;;0.00;0.00;;;16.40;90.70;;;;;;5046956;28;20060;-78
2021/11/05 07:56:54;;;;;;;0.00;0.00;;;16.40;90.70;;;;;;5024269;28;20053;-78
2021/11/05 07:59:20;;;;;;;0.00;0.00;;;16.50;90.60;;;;;;5029726;28;20122;-78
2021/11/05 08:01:45;;;;;;;0.00;0.00;;;16.50;90.50;;;;;;5023695;28;20025;-78
2021/11/05 08:04:11;;;;;;;0.00;0.00;;;16.60;90.50;;;;;;5024061;28;20426;-79
2021/11/05 08:06:37;;;;;;;0.00;0.00;;;16.60;90.40;;;;;;5022526;28;20029;-78
2021/11/05 08:09:03;;;;;;;0.00;0.00;;;16.60;90.20;;;;;;5023890;28;20033;-78
2021/11/05 08:11:30;;;;;;;0.00;0.00;;;16.60;90.10;;;;;;5024048;28;20022;-77
2021/11/05 08:13:57;;;;;;;0.00;0.00;;;16.60;90.00;;;;;;5022407;28;20068;-78
2021/11/05 08:16:24;;;;;;;0.00;0.00;;;16.60;90.10;;;;;;5023712;28;20512;-79
2021/11/05 08:18:50;;;;;;;0.00;0.00;;;16.70;90.10;;;;;;5045213;28;20041;-78
2021/11/05 08:21:16;;;;;;;0.00;0.00;;;16.70;90.00;;;;;;5024300;28;20025;-79
2021/11/05 08:23:42;;;;;;;0.00;0.00;;;16.80;90.00;;;;;;5023182;28;20036;-79
2021/11/05 08:26:08;;;;;;;0.00;0.00;;;16.80;89.70;;;;;;5023198;28;20025;-78
2021/11/05 08:28:38;;;;;;;0.00;0.00;;;16.80;89.50;;;;;;5024219;28;20033;-79
2021/11/05 08:31:04;;;;;;;0.00;0.00;;;16.80;89.50;;;;;;5023046;28;20053;-79
2021/11/05 08:33:30;;;;;;;0.00;0.00;;;16.80;89.40;;;;;;5023015;28;20514;-78
2021/11/05 08:35:56;;;;;;;0.00;0.00;;;16.70;89.40;;;;;;5023743;28;20017;-77
2021/11/05 08:38:24;;;;;;;0.00;0.00;;;16.80;89.50;;;;;;5022374;28;20045;-79
2021/11/05 08:40:52;;;;;;;0.00;0.00;;;16.80;89.50;;;;;;5022684;28;20049;-78
2021/11/05 08:43:23;;;;;;;0.00;0.00;;;16.80;89.50;;;;;;5024582;28;20018;-79
2021/11/05 08:45:50;;;;;;;0.00;0.00;;;16.80;89.30;;;;;;5020528;28;20080;-77
2021/11/05 08:48:18;;;;;;;0.00;0.00;;;16.80;89.10;;;;;;5013718;28;20117;-77
2021/11/05 08:50:44;;;;;;;0.00;0.00;;;16.90;89.30;;;;;;5014385;28;20026;-77
2021/11/05 08:53:09;;;;;;;0.00;0.00;;;16.80;89.30;;;;;;5024129;28;20351;-77
2021/11/05 08:55:38;;;;;;;0.00;0.00;;;16.90;89.30;;;;;;5034081;28;20159;-77
2021/11/05 08:58:04;;;;;;;0.00;0.00;;;16.90;89.00;;;;;;5033664;28;20033;-77
2021/11/05 09:00:33;;;;;;;0.00;0.00;;;16.90;88.80;;;;;;5033493;28;20033;-77
2021/11/05 09:03:03;;;;;;;0.00;0.00;;;16.90;89.10;;;;;;5033943;28;20126;-77
2021/11/05 09:05:29;;;;;;;0.00;0.00;;;16.90;89.40;;;;;;5048725;28;20057;-77
2021/11/05 09:07:55;;;;;;;0.00;0.00;;;16.90;89.30;;;;;;5029151;28;20042;-78
2021/11/05 09:10:21;;;;;;;0.00;0.00;;;17.00;89.30;;;;;;5048836;28;20025;-77
2021/11/05 09:12:47;;;;;;;0.00;0.00;;;17.00;89.10;;;;;;5033584;28;20110;-77
2021/11/05 09:15:16;;;;;;;0.00;0.00;;;17.10;88.70;;;;;;5032880;28;20465;-78
2021/11/05 09:17:42;;;;;;;0.00;0.00;;;17.10;88.60;;;;;;5032966;28;20492;-78
2021/11/05 09:20:10;;;;;;;0.00;0.00;;;17.10;88.50;;;;;;5033340;28;20034;-78
2021/11/05 09:22:36;;;;;;;0.00;0.00;;;17.10;88.50;;;;;;5027900;28;20474;-77
2021/11/05 09:25:06;;;;;;;0.00;0.00;;;17.20;88.50;;;;;;5013535;28;20030;-78
2021/11/05 09:27:33;;;;;;;0.00;0.00;;;17.20;88.30;;;;;;5013464;28;20042;-78
2021/11/05 09:29:59;;;;;;;0.00;0.00;;;17.30;88.20;;;;;;5013412;28;20030;-78
2021/11/05 09:32:25;;;;;;;0.00;0.00;;;17.30;88.00;;;;;;5028043;28;20029;-78
2021/11/05 09:34:54;;;;;;;0.00;0.00;;;17.30;87.80;;;;;;5048476;28;20022;-78
2021/11/05 09:37:19;;;;;;;0.00;0.00;;;17.30;87.70;;;;;;5033028;28;20034;-78
2021/11/05 09:39:45;;;;;;;0.00;0.00;;;17.30;87.60;;;;;;5033319;28;20079;-78
2021/11/05 09:42:11;;;;;;;0.00;0.00;;;17.30;87.80;;;;;;5032900;28;20109;-78
2021/11/05 09:44:39;;;;;;;0.00;0.00;;;17.40;87.70;;;;;;5048889;28;20378;-78
2021/11/05 09:47:05;;;;;;;0.00;0.00;;;17.40;87.70;;;;;;5033116;28;20056;-79
2021/11/05 09:49:33;;;;;;;0.00;0.00;;;17.40;87.70;;;;;;5033221;28;20068;-79
2021/11/05 09:52:01;;;;;;;0.00;0.00;;;17.40;87.30;;;;;;5029466;28;20128;-78
2021/11/05 09:54:29;;;;;;;0.00;0.00;;;17.50;87.20;;;;;;5024693;28;20037;-79
2021/11/05 09:56:55;;;;;;;0.00;0.00;;;17.50;87.00;;;;;;5032043;28;20029;-78
2021/11/05 09:59:21;;;;;;;0.00;0.00;;;17.50;87.00;;;;;;5051248;28;20103;-78
2021/11/05 10:01:47;;;;;;;0.00;0.00;;;17.60;86.90;;;;;;5036870;28;20473;-78
2021/11/05 10:04:14;;;;;;;0.00;0.00;;;17.60;86.70;;;;;;5037436;28;20080;-76
2021/11/05 10:07:05;;;;;;;0.00;0.00;;;17.60;86.70;;;;;;5037105;28;20036;-78
2021/11/05 10:09:54;;;;;;;0.00;0.00;;;17.60;86.30;;;;;;5036670;28;20111;-79
2021/11/05 10:12:23;;;;;;;0.00;0.00;;;17.70;86.90;;;;;;5029237;28;20124;-78
2021/11/05 10:15:06;;;;;;;0.00;0.00;;;17.70;86.20;;;;;;5051980;28;20060;-78
2021/11/05 10:17:33;;;;;;;0.00;0.00;;;17.70;86.00;;;;;;5035933;28;20120;-78
2021/11/05 10:20:04;;;;;;;0.00;0.00;;;17.70;86.10;;;;;;5036510;28;20022;-78
2021/11/05 10:22:50;;;;;;;0.00;0.00;;;17.70;86.00;;;;;;5043034;28;20347;-78
2021/11/05 10:25:30;;;;;;;0.00;0.00;;;17.70;85.80;;;;;;5042323;28;20388;-78
2021/11/05 10:28:17;;;;;;;0.00;0.00;;;17.70;85.70;;;;;;5036348;28;20037;-77
2021/11/05 10:30:42;;;;;;;0.00;0.00;;;17.70;85.70;;;;;;5036516;28;20433;-77
2021/11/05 10:33:14;;;;;;;0.00;0.00;;;17.70;86.00;;;;;;5036131;28;20057;-77
2021/11/05 10:35:42;;;;;;;0.00;0.00;;;17.70;86.00;;;;;;5036266;28;20033;-78
2021/11/05 10:38:10;;;;;;;0.00;0.00;;;17.70;86.10;;;;;;5035792;28;20083;-77
2021/11/05 10:40:50;;;;;;;0.00;0.00;;;17.70;86.10;;;;;;5036211;28;20025;-78
2021/11/05 10:43:33;;;;;;;0.00;0.00;;;17.70;86.10;;;;;;5036321;28;20026;-78
2021/11/05 10:45:59;;;;;;;0.00;0.00;;;17.70;86.10;;;;;;5036630;28;20452;-79
2021/11/05 10:48:28;;;;;;;0.00;0.00;;;17.70;86.20;;;;;;5029870;28;20044;-78
2021/11/05 10:50:57;;;;;;;0.00;0.00;;;17.70;86.40;;;;;;5026033;28;20037;-78
2021/11/05 10:53:30;;;;;;;0.00;0.00;;;17.70;86.40;;;;;;5026605;28;20040;-78
2021/11/05 10:55:58;;;;;;;0.00;0.00;;;17.70;86.30;;;;;;5027088;28;20022;-78
2021/11/05 10:58:28;;;;;;;0.00;0.00;;;17.80;86.20;;;;;;5031745;28;20384;-78
2021/11/05 11:01:00;;;;;;;0.00;0.00;;;17.80;86.20;;;;;;5035691;28;20033;-78
2021/11/05 11:03:31;;;;;;;0.00;0.00;;;17.80;86.10;;;;;;5034242;28;20104;-78
2021/11/05 11:09:22;;;;;;;0.00;0.00;;;17.90;85.90;;;;;;5026481;28;20032;-77
2021/11/05 11:11:58;;;;;;;0.00;0.00;;;17.90;85.90;;;;;;5035863;28;20034;-78
2021/11/05 11:14:30;;;;;;;0.00;0.00;;;17.80;85.80;;;;;;5050781;28;20095;-78
2021/11/05 11:16:56;;;;;;;0.00;0.00;;;17.80;86.10;;;;;;5032147;28;20032;-77
2021/11/05 11:19:31;;;;;;;0.00;0.00;;;17.90;86.30;;;;;;5025077;28;20396;-78
2021/11/05 11:21:59;;;;;;;0.00;0.00;;;17.90;86.10;;;;;;5028355;28;20034;-78
2021/11/05 11:24:28;;;;;;;0.00;0.00;;;17.90;86.20;;;;;;5027528;28;20021;-79
2021/11/05 11:26:55;;;;;;;0.00;0.00;;;17.90;86.00;;;;;;5026837;28;20357;-79
2021/11/05 11:29:23;;;;;;;0.00;0.00;;;17.90;86.00;;;;;;5028476;28;20377;-79
2021/11/05 11:31:50;;;;;;;0.00;0.00;;;17.90;86.00;;;;;;5024402;28;20022;-79
2021/11/05 11:34:17;;;;;;;0.00;0.00;;;17.90;85.80;;;;;;5032026;28;20022;-78
2021/11/05 11:36:51;;;;;;;0.00;0.00;;;17.90;85.60;;;;;;5032999;28;20477;-80
2021/11/05 11:39:19;;;;;;;0.00;0.00;;;17.90;85.70;;;;;;5025867;28;20045;-79
2021/11/05 11:41:46;;;;;;;0.00;0.00;;;17.90;85.70;;;;;;5015493;28;20330;-77
2021/11/05 11:44:16;;;;;;;0.00;0.00;;;17.90;85.70;;;;;;5014278;28;20026;-78
2021/11/05 11:46:56;;;;;;;0.00;0.00;;;18.00;85.70;;;;;;5024572;28;20038;-79
2021/11/05 11:49:37;;;;;;;0.00;0.00;;;18.00;85.50;;;;;;5034053;28;20359;-78
2021/11/05 11:52:23;;;;;;;0.00;0.00;;;18.10;85.30;;;;;;5032983;28;20060;-78
2021/11/05 11:54:52;;;;;;;0.00;0.00;;;18.10;85.10;;;;;;5008068;28;20042;-78
2021/11/05 11:57:19;;;;;;;0.00;0.00;;;18.20;84.90;;;;;;5015303;28;20088;-78
2021/11/05 12:00:00;;;;;;;0.00;0.00;;;18.20;84.70;;;;;;5014721;28;20465;-79
2021/11/05 12:02:37;;;;;;;0.00;0.00;;;18.30;84.40;;;;;;5014955;28;20026;-78
2021/11/05 12:05:26;;;;;;;0.00;0.00;;;18.30;84.20;;;;;;5020262;28;20040;-78
2021/11/05 12:08:13;;;;;;;0.00;0.00;;;18.30;84.00;;;;;;5010527;28;20038;-78
2021/11/05 12:10:41;;;;;;;0.00;0.00;;;18.30;83.80;;;;;;5015069;28;20030;-78
2021/11/05 12:13:38;;;;;;;0.00;0.00;;;18.30;83.80;;;;;;5014455;28;20017;-77
2021/11/05 12:16:21;;;;;;;0.00;0.00;;;18.30;83.50;;;;;;5004829;28;20083;-78
2021/11/05 12:21:29;;;;;;;0.00;0.00;;;18.30;83.30;;;;;;5015186;28;20438;-79
2021/11/05 12:24:24;;;;;;;0.00;0.00;;;18.30;83.30;;;;;;5029420;28;20484;-78
2021/11/05 12:27:16;;;;;;;0.00;0.00;;;18.20;83.30;;;;;;5014378;28;20025;-79
2021/11/05 12:29:41;;;;;;;0.00;0.00;;;18.20;83.40;;;;;;5025150;28;20028;-79
2021/11/05 12:32:19;;;;;;;0.00;0.00;;;18.20;83.50;;;;;;5032487;28;20104;-80
2021/11/05 12:34:53;;;;;;;0.00;0.00;;;18.20;83.50;;;;;;5032180;28;20021;-79
2021/11/05 12:37:51;;;;;;;0.00;0.00;;;18.20;83.50;;;;;;5023387;28;20017;-79
2021/11/05 12:40:34;;;;;;;0.00;0.00;;;18.20;83.50;;;;;;5027005;28;20482;-79
2021/11/05 12:43:07;;;;;;;0.00;0.00;;;18.20;83.20;;;;;;5016201;28;20426;-78
2021/11/05 12:45:55;;;;;;;0.00;0.00;;;18.30;83.00;;;;;;5024290;28;20021;-79
2021/11/05 12:48:39;;;;;;;0.00;0.00;;;18.30;82.70;;;;;;5013386;28;20390;-79
2021/11/05 12:51:07;;;;;;;0.00;0.00;;;18.30;82.60;;;;;;5014010;28;20026;-79
2021/11/05 12:53:33;;;;;;;0.00;0.00;;;18.30;82.50;;;;;;5028873;28;20422;-79
2021/11/05 12:55:59;;;;;;;0.00;0.00;;;18.30;82.30;;;;;;5013719;28;20029;-79
2021/11/05 12:58:29;;;;;;;0.00;0.00;;;18.30;82.30;;;;;;5013770;28;20034;-79